createdAt,value
2022-07-28T00:02:06.151Z,18.20
2022-07-28T00:04:52.057Z,18.20
2022-07-28T00:07:38.101Z,18.20
2022-07-28T00:10:24.057Z,18.10
2022-07-28T00:13:10.383Z,18.10
2022-07-28T00:15:56.316Z,18.10
2022-07-28T00:18:42.566Z,18.00
2022-07-28T00:21:28.584Z,18.00
2022-07-28T00:24:14.901Z,18.10
2022-07-28T00:27:01.580Z,18.10
2022-07-28T00:29:50.937Z,18.10
2022-07-28T00:32:37.744Z,18.10
2022-07-28T00:35:30.907Z,18.00
2022-07-28T00:38:17.740Z,18.00
2022-07-28T00:41:13.275Z,17.90
2022-07-28T00:43:59.330Z,17.90
2022-07-28T00:46:45.764Z,17.80
2022-07-28T00:49:32.095Z,17.80
2022-07-28T00:52:19.091Z,17.80
2022-07-28T00:55:05.562Z,17.70
2022-07-28T00:57:51.798Z,17.70
2022-07-28T01:00:37.653Z,17.70
2022-07-28T01:03:24.592Z,17.70
2022-07-28T01:06:26.269Z,17.60
2022-07-28T01:09:38.896Z,17.60
2022-07-28T01:12:24.939Z,17.60
2022-07-28T01:15:29.816Z,17.50
2022-07-28T01:18:43.128Z,17.50
2022-07-28T01:21:35.489Z,17.60
2022-07-28T01:24:43.375Z,17.50
2022-07-28T01:27:32.718Z,17.50
2022-07-28T01:30:38.646Z,17.40
2022-07-28T01:33:38.341Z,17.40
2022-07-28T01:36:33.341Z,17.30
2022-07-28T01:39:22.049Z,17.40
2022-07-28T01:42:12.066Z,17.30
2022-07-28T01:45:00.785Z,17.30
2022-07-28T01:47:48.879Z,17.30
2022-07-28T01:50:37.682Z,17.20
2022-07-28T01:53:26.146Z,17.20
2022-07-28T01:56:13.899Z,17.20
2022-07-28T01:59:05.396Z,17.20
2022-07-28T02:01:53.080Z,17.20
2022-07-28T02:04:41.403Z,17.20
2022-07-28T02:07:28.554Z,17.20
2022-07-28T02:10:17.289Z,17.20
2022-07-28T02:13:04.726Z,17.20
2022-07-28T02:15:52.287Z,17.30
2022-07-28T02:18:40.551Z,17.20
2022-07-28T02:21:29.570Z,17.20
2022-07-28T02:24:19.251Z,17.10
2022-07-28T02:27:27.248Z,17.10
2022-07-28T02:30:19.546Z,17.20
2022-07-28T02:33:13.039Z,17.10
2022-07-28T02:36:10.828Z,17.10
2022-07-28T02:39:07.668Z,17.10
2022-07-28T02:42:02.298Z,17.00
2022-07-28T02:44:59.766Z,17.00
2022-07-28T02:47:51.818Z,16.90
2022-07-28T02:50:41.052Z,16.90
2022-07-28T02:53:29.130Z,16.80
2022-07-28T02:56:17.638Z,16.70
2022-07-28T02:59:04.169Z,16.80
2022-07-28T03:01:51.922Z,16.80
2022-07-28T03:05:18.853Z,16.80
2022-07-28T03:08:05.136Z,16.90
2022-07-28T03:11:08.672Z,16.80
2022-07-28T03:13:54.678Z,16.90
2022-07-28T03:16:40.900Z,16.80
2022-07-28T03:19:27.178Z,16.80
2022-07-28T03:22:13.278Z,16.80
2022-07-28T03:25:00.814Z,16.60
2022-07-28T03:27:50.844Z,16.60
2022-07-28T03:30:43.142Z,16.60
2022-07-28T03:33:29.687Z,16.60
2022-07-28T03:36:26.802Z,16.70
2022-07-28T03:39:16.711Z,16.70
2022-07-28T03:42:03.970Z,16.70
2022-07-28T03:44:51.264Z,16.60
2022-07-28T03:47:37.586Z,16.60
2022-07-28T03:50:28.161Z,16.50
2022-07-28T03:53:21.758Z,16.40
2022-07-28T03:56:07.787Z,16.40
2022-07-28T03:58:53.680Z,16.40
2022-07-28T04:01:39.730Z,16.40
2022-07-28T04:04:26.181Z,16.50
2022-07-28T04:07:12.446Z,16.50
2022-07-28T04:09:58.880Z,16.60
2022-07-28T04:12:51.964Z,16.60
2022-07-28T04:15:38.681Z,16.50
2022-07-28T04:18:24.941Z,16.60
2022-07-28T04:21:10.815Z,16.60
2022-07-28T04:24:01.690Z,16.60
2022-07-28T04:26:48.430Z,16.60
2022-07-28T04:29:34.528Z,16.70
2022-07-28T04:32:20.459Z,16.70
2022-07-28T04:35:08.389Z,16.60
2022-07-28T04:37:58.712Z,16.60
2022-07-28T04:40:44.894Z,16.50
2022-07-28T04:43:31.102Z,16.40
2022-07-28T04:46:17.051Z,16.50
2022-07-28T04:49:04.175Z,16.40
2022-07-28T04:51:52.393Z,16.40
2022-07-28T04:54:39.328Z,16.40
2022-07-28T04:57:28.260Z,16.50
2022-07-28T05:00:15.391Z,16.50
2022-07-28T05:03:02.664Z,16.50
2022-07-28T05:05:54.554Z,16.50
2022-07-28T05:08:41.246Z,16.50
2022-07-28T05:11:27.517Z,16.40
2022-07-28T05:14:14.068Z,16.50
2022-07-28T05:17:00.517Z,16.50
2022-07-28T05:19:46.839Z,16.50
2022-07-28T05:22:46.692Z,16.50
2022-07-28T05:25:32.666Z,16.50
2022-07-28T05:28:18.821Z,16.60
2022-07-28T05:31:05.024Z,16.70
2022-07-28T05:33:51.066Z,16.70
2022-07-28T05:36:38.445Z,16.70
2022-07-28T05:39:24.453Z,16.70
2022-07-28T05:42:10.388Z,16.80
2022-07-28T05:44:56.485Z,17.00
2022-07-28T05:47:48.679Z,17.10
2022-07-28T05:50:34.987Z,17.30
2022-07-28T05:53:21.267Z,17.40
2022-07-28T05:56:07.311Z,17.50
2022-07-28T05:58:53.447Z,17.50
2022-07-28T06:01:39.544Z,17.50
2022-07-28T06:04:27.987Z,17.60
2022-07-28T06:07:14.785Z,17.70
2022-07-28T06:10:00.828Z,17.70
2022-07-28T06:12:51.989Z,17.70
2022-07-28T06:15:37.861Z,17.70
2022-07-28T06:18:23.863Z,17.60
2022-07-28T06:21:09.796Z,17.60
2022-07-28T06:23:55.946Z,17.70
2022-07-28T06:26:44.684Z,17.80
2022-07-28T06:29:31.571Z,17.90
2022-07-28T06:32:17.845Z,18.00
2022-07-28T06:35:04.541Z,18.00
2022-07-28T06:37:51.927Z,18.10
2022-07-28T06:40:37.892Z,18.30
2022-07-28T06:43:24.139Z,18.40
2022-07-28T06:46:09.979Z,18.50
2022-07-28T06:48:56.015Z,18.40
2022-07-28T06:51:42.937Z,18.50
2022-07-28T06:54:28.874Z,18.50
2022-07-28T06:57:14.766Z,18.50
2022-07-28T07:00:06.790Z,18.60
2022-07-28T07:02:53.139Z,18.70
2022-07-28T07:05:39.414Z,18.70
2022-07-28T07:08:25.510Z,18.80
2022-07-28T07:11:12.117Z,19.00
2022-07-28T07:13:58.179Z,19.10
2022-07-28T07:16:44.455Z,19.30
2022-07-28T07:19:30.622Z,19.40
2022-07-28T07:22:17.055Z,19.50
2022-07-28T07:25:10.878Z,19.50
2022-07-28T07:27:56.844Z,19.70
2022-07-28T07:30:42.861Z,19.80
2022-07-28T07:33:28.931Z,19.90
2022-07-28T07:36:14.971Z,20.00
2022-07-28T07:39:00.812Z,20.00
2022-07-28T07:41:46.865Z,20.00
2022-07-28T07:44:32.949Z,19.90
2022-07-28T07:47:18.938Z,19.90
2022-07-28T07:50:05.286Z,20.00
2022-07-28T07:52:51.204Z,20.10
2022-07-28T07:55:37.694Z,20.20
2022-07-28T07:58:24.118Z,20.30
2022-07-28T08:01:13.894Z,20.60
2022-07-28T08:04:00.978Z,20.70
2022-07-28T08:06:48.462Z,20.80
2022-07-28T08:09:34.942Z,20.90
2022-07-28T08:12:24.747Z,21.10
2022-07-28T08:15:12.052Z,21.20
2022-07-28T08:17:58.565Z,21.30
2022-07-28T08:20:44.649Z,21.40
2022-07-28T08:23:30.665Z,21.60
2022-07-28T08:26:16.811Z,21.80
2022-07-28T08:29:03.198Z,21.90
2022-07-28T08:31:49.490Z,22.00
2022-07-28T08:34:36.314Z,22.10
2022-07-28T08:37:22.566Z,22.20
2022-07-28T08:40:14.803Z,22.30
2022-07-28T08:43:23.433Z,22.50
2022-07-28T08:46:09.808Z,22.60
2022-07-28T08:48:57.601Z,22.60
2022-07-28T08:51:47.556Z,22.60
2022-07-28T08:54:34.286Z,22.60
2022-07-28T08:57:30.700Z,22.70
2022-07-28T09:00:17.090Z,22.80
2022-07-28T09:03:04.566Z,22.80
2022-07-28T09:05:50.859Z,22.90
2022-07-28T09:08:37.403Z,22.90
2022-07-28T09:11:23.551Z,22.90
2022-07-28T09:14:09.758Z,23.00
2022-07-28T09:16:56.249Z,23.00
2022-07-28T09:19:42.307Z,23.10
2022-07-28T09:22:28.398Z,23.20
2022-07-28T09:25:22.193Z,23.40
2022-07-28T09:28:16.398Z,23.50
2022-07-28T09:31:08.034Z,23.60
2022-07-28T09:34:12.821Z,23.80
2022-07-28T09:36:59.556Z,24.00
2022-07-28T09:39:46.876Z,24.10
2022-07-28T09:42:46.485Z,24.20
2022-07-28T09:45:32.748Z,24.40
2022-07-28T09:48:19.146Z,24.60
2022-07-28T09:51:13.619Z,24.70
2022-07-28T09:54:12.526Z,25.00
2022-07-28T09:56:59.140Z,25.20
2022-07-28T09:59:52.020Z,25.30
2022-07-28T10:02:49.877Z,25.50
2022-07-28T10:05:45.058Z,25.50
2022-07-28T10:08:46.906Z,25.60
2022-07-28T10:11:35.384Z,25.70
2022-07-28T10:14:32.729Z,25.90
2022-07-28T10:17:33.592Z,26.20
2022-07-28T10:20:20.224Z,26.20
2022-07-28T10:23:09.215Z,26.30
2022-07-28T10:25:58.202Z,26.30
2022-07-28T10:28:49.699Z,26.40
2022-07-28T10:31:46.342Z,26.50
2022-07-28T10:34:43.616Z,26.80
2022-07-28T10:37:31.828Z,27.10
2022-07-28T10:40:22.266Z,27.20
2022-07-28T10:43:09.090Z,27.10
2022-07-28T10:46:05.775Z,27.30
2022-07-28T10:48:52.914Z,27.40
2022-07-28T10:52:06.300Z,27.50
2022-07-28T10:55:13.858Z,27.50
2022-07-28T10:58:11.368Z,27.30
2022-07-28T11:01:05.566Z,27.30
2022-07-28T11:03:53.281Z,27.30
2022-07-28T11:06:40.226Z,27.20
2022-07-28T11:09:26.170Z,27.20
2022-07-28T11:12:15.284Z,27.10
2022-07-28T11:15:22.397Z,26.90
2022-07-28T11:18:10.069Z,26.90
2022-07-28T11:20:58.520Z,27.00
2022-07-28T11:23:53.822Z,27.20
2022-07-28T11:26:44.755Z,27.30
2022-07-28T11:29:46.246Z,27.30
2022-07-28T11:32:50.575Z,27.10
2022-07-28T11:35:39.786Z,27.10
2022-07-28T11:38:26.354Z,26.90
2022-07-28T11:41:30.193Z,27.00
2022-07-28T11:44:28.878Z,26.90
2022-07-28T11:47:20.430Z,27.00
2022-07-28T11:50:14.936Z,27.10
2022-07-28T11:53:00.890Z,27.10
2022-07-28T11:56:02.537Z,27.10
2022-07-28T11:58:57.558Z,27.20
2022-07-28T12:01:53.215Z,27.10
2022-07-28T12:04:39.532Z,27.10
2022-07-28T12:07:35.898Z,27.10
2022-07-28T12:13:42.335Z,27.30
2022-07-28T12:16:29.849Z,27.30
2022-07-28T12:19:18.010Z,27.30
2022-07-28T12:22:15.554Z,27.20
2022-07-28T12:25:02.439Z,27.20
2022-07-28T12:27:50.612Z,27.20
2022-07-28T12:30:36.662Z,27.20
2022-07-28T12:33:29.750Z,27.30
2022-07-28T12:36:18.961Z,27.50
2022-07-28T12:39:12.513Z,27.50
2022-07-28T12:42:08.857Z,27.40
2022-07-28T12:45:02.936Z,27.40
2022-07-28T12:47:48.875Z,27.60
2022-07-28T12:50:38.838Z,27.80
2022-07-28T12:53:25.661Z,28.00
2022-07-28T12:56:11.832Z,28.10
2022-07-28T12:59:05.544Z,28.10
2022-07-28T13:01:56.991Z,28.10
2022-07-28T13:04:48.761Z,28.20
2022-07-28T13:07:35.231Z,28.30
2022-07-28T13:10:22.660Z,28.40
2022-07-28T13:13:08.878Z,28.50
2022-07-28T13:16:12.029Z,28.60
2022-07-28T13:19:02.720Z,28.90
2022-07-28T13:21:58.816Z,29.00
2022-07-28T13:24:46.342Z,29.00
2022-07-28T13:27:34.395Z,29.00
2022-07-28T13:30:20.545Z,28.90
2022-07-28T13:33:13.622Z,28.90
2022-07-28T13:36:00.624Z,29.00
2022-07-28T13:38:46.841Z,29.10
2022-07-28T13:41:56.383Z,29.20
2022-07-28T13:44:39.241Z,29.10
2022-07-28T13:47:26.973Z,29.10
2022-07-28T13:50:21.657Z,29.10
2022-07-28T13:53:07.640Z,29.10
2022-07-28T13:55:53.431Z,29.10
2022-07-28T13:58:39.493Z,28.90
2022-07-28T14:01:28.269Z,28.80
2022-07-28T14:04:17.461Z,28.60
2022-07-28T14:07:04.170Z,28.60
2022-07-28T14:09:52.064Z,28.40
2022-07-28T14:12:38.155Z,28.40
2022-07-28T14:15:24.586Z,28.30
2022-07-28T14:18:11.428Z,28.30
2022-07-28T14:20:57.970Z,28.20
2022-07-28T14:23:44.025Z,28.10
2022-07-28T14:26:35.903Z,28.10
2022-07-28T14:29:22.400Z,27.90
2022-07-28T14:32:08.316Z,27.90
2022-07-28T14:34:54.657Z,27.90
2022-07-28T14:38:15.743Z,27.80
2022-07-28T14:40:46.824Z,27.80
2022-07-28T14:43:32.984Z,27.60
2022-07-28T14:46:21.901Z,27.40
2022-07-28T14:49:08.367Z,27.30
2022-07-28T14:51:56.071Z,27.30
2022-07-28T14:54:42.270Z,27.30
2022-07-28T14:57:50.030Z,27.40
2022-07-28T15:00:34.866Z,27.40
2022-07-28T15:03:20.810Z,27.40
2022-07-28T15:06:07.319Z,27.30
2022-07-28T15:08:55.537Z,27.40
2022-07-28T15:11:42.095Z,27.40
2022-07-28T15:14:28.203Z,27.40
2022-07-28T15:17:14.521Z,27.40
2022-07-28T15:20:00.682Z,27.30
2022-07-28T15:22:46.897Z,27.30
2022-07-28T15:25:32.910Z,27.30
2022-07-28T15:28:18.993Z,27.30
2022-07-28T15:31:06.810Z,27.30
2022-07-28T15:33:57.605Z,27.20
2022-07-28T15:36:44.276Z,27.20
2022-07-28T15:39:31.058Z,27.20
2022-07-28T15:42:18.702Z,27.20
2022-07-28T15:45:05.291Z,27.10
2022-07-28T15:47:51.446Z,27.00
2022-07-28T15:50:37.418Z,27.00
2022-07-28T15:53:23.445Z,27.00
2022-07-28T15:56:09.373Z,27.00
2022-07-28T15:58:57.267Z,27.10
2022-07-28T16:01:45.639Z,27.10
2022-07-28T16:04:32.539Z,26.90
2022-07-28T16:07:23.458Z,26.90
2022-07-28T16:10:09.678Z,26.90
2022-07-28T16:12:58.486Z,26.90
2022-07-28T16:15:44.898Z,26.80
2022-07-28T16:18:31.985Z,26.80
2022-07-28T16:21:18.812Z,26.80
2022-07-28T16:24:06.182Z,26.80
2022-07-28T16:26:52.239Z,26.80
2022-07-28T16:29:38.482Z,26.80
2022-07-28T16:32:24.547Z,26.80
2022-07-28T16:35:10.619Z,26.70
2022-07-28T16:37:56.713Z,26.70
2022-07-28T16:40:42.466Z,26.70
2022-07-28T16:43:28.462Z,26.70
2022-07-28T16:46:14.708Z,26.70
2022-07-28T16:49:01.897Z,26.60
2022-07-28T16:51:48.161Z,26.70
2022-07-28T16:54:34.464Z,26.60
2022-07-28T16:57:20.575Z,26.60
2022-07-28T17:00:07.327Z,26.60
2022-07-28T17:02:53.578Z,26.60
2022-07-28T17:05:39.913Z,26.50
2022-07-28T17:08:26.921Z,26.50
2022-07-28T17:11:12.967Z,26.50
2022-07-28T17:13:58.954Z,26.50
2022-07-28T17:16:45.782Z,26.50
2022-07-28T17:19:32.920Z,26.50
2022-07-28T17:22:22.877Z,26.50
2022-07-28T17:25:28.407Z,26.40
2022-07-28T17:28:15.586Z,26.40
2022-07-28T17:31:02.405Z,26.30
2022-07-28T17:33:48.751Z,26.30
2022-07-28T17:36:35.552Z,26.20
2022-07-28T17:39:21.639Z,26.10
2022-07-28T17:42:07.649Z,26.10
2022-07-28T17:44:56.223Z,26.10
2022-07-28T17:47:42.895Z,26.10
2022-07-28T17:50:29.265Z,26.00
2022-07-28T17:53:15.923Z,26.00
2022-07-28T17:56:01.990Z,26.00
2022-07-28T17:58:52.102Z,26.00
2022-07-28T18:01:42.303Z,26.00
2022-07-28T18:04:31.386Z,25.90
2022-07-28T18:07:17.446Z,25.90
2022-07-28T18:10:03.501Z,25.80
2022-07-28T18:12:49.850Z,25.80
2022-07-28T18:15:35.951Z,25.70
2022-07-28T18:18:22.333Z,25.60
2022-07-28T18:21:08.504Z,25.60
2022-07-28T18:23:54.956Z,25.60
2022-07-28T18:26:41.421Z,25.60
2022-07-28T18:29:38.265Z,25.50
2022-07-28T18:32:24.729Z,25.50
2022-07-28T18:35:11.690Z,25.40
2022-07-28T18:37:58.338Z,25.40
2022-07-28T18:40:44.509Z,25.30
2022-07-28T18:43:30.374Z,25.30
2022-07-28T18:46:16.412Z,25.30
2022-07-28T18:49:02.871Z,25.20
2022-07-28T18:51:49.457Z,25.10
2022-07-28T18:54:35.725Z,25.00
2022-07-28T18:57:21.970Z,25.00
2022-07-28T19:00:10.103Z,24.90
2022-07-28T19:02:56.160Z,24.90
2022-07-28T19:05:45.985Z,24.80
2022-07-28T19:08:32.480Z,24.80
2022-07-28T19:11:19.968Z,24.70
2022-07-28T19:14:06.482Z,24.70
2022-07-28T19:16:52.574Z,24.70
2022-07-28T19:19:38.713Z,24.70
2022-07-28T19:22:25.382Z,24.60
2022-07-28T19:25:11.486Z,24.50
2022-07-28T19:27:57.917Z,24.50
2022-07-28T19:30:44.998Z,24.40
2022-07-28T19:33:31.454Z,24.30
2022-07-28T19:36:20.385Z,24.20
2022-07-28T19:39:06.506Z,24.20
2022-07-28T19:41:52.427Z,24.10
2022-07-28T19:44:38.431Z,24.10
2022-07-28T19:47:24.354Z,24.10
2022-07-28T19:50:10.484Z,24.10
2022-07-28T19:52:57.421Z,24.10
2022-07-28T19:55:50.527Z,24.00
2022-07-28T19:58:37.238Z,24.00
2022-07-28T20:01:23.593Z,24.00
2022-07-28T20:04:10.574Z,23.90
2022-07-28T20:06:57.489Z,24.00
2022-07-28T20:09:43.635Z,23.90
2022-07-28T20:12:35.796Z,23.90
2022-07-28T20:15:23.098Z,23.90
2022-07-28T20:18:09.051Z,23.90
2022-07-28T20:20:55.157Z,23.80
2022-07-28T20:23:42.253Z,23.70
2022-07-28T20:26:28.144Z,23.70
2022-07-28T20:29:14.578Z,23.60
2022-07-28T20:32:00.705Z,23.60
2022-07-28T20:34:46.727Z,23.60
2022-07-28T20:37:36.898Z,23.50
2022-07-28T20:40:24.113Z,23.50
2022-07-28T20:43:10.261Z,23.50
2022-07-28T20:45:56.185Z,23.50
2022-07-28T20:48:42.383Z,23.50
2022-07-28T20:51:28.218Z,23.60
2022-07-28T20:54:14.731Z,23.60
2022-07-28T20:57:01.649Z,23.60
2022-07-28T20:59:48.920Z,23.60
2022-07-28T21:02:35.453Z,23.50
2022-07-28T21:05:35.167Z,23.50
2022-07-28T21:08:22.138Z,23.50
2022-07-28T21:11:08.663Z,23.40
2022-07-28T21:13:55.773Z,23.30
2022-07-28T21:16:41.604Z,23.30
2022-07-28T21:19:27.674Z,23.20
2022-07-28T21:22:13.639Z,23.10
2022-07-28T21:25:00.012Z,23.00
2022-07-28T21:28:04.491Z,22.90
2022-07-28T21:30:50.659Z,22.80
2022-07-28T21:33:36.927Z,22.70
2022-07-28T21:36:23.339Z,22.60
2022-07-28T21:39:10.557Z,22.60
2022-07-28T21:41:56.873Z,22.50
2022-07-28T21:44:42.827Z,22.40
2022-07-28T21:47:29.042Z,22.40
2022-07-28T21:50:20.318Z,22.30
2022-07-28T21:53:06.478Z,22.20
2022-07-28T21:55:57.046Z,22.20
2022-07-28T21:58:44.335Z,22.20
2022-07-28T22:01:30.485Z,22.20
2022-07-28T22:04:17.024Z,22.20
2022-07-28T22:07:03.839Z,22.10
2022-07-28T22:09:49.795Z,22.10
2022-07-28T22:12:35.958Z,22.10
2022-07-28T22:15:22.034Z,22.10
2022-07-28T22:18:10.138Z,22.10
2022-07-28T22:20:59.693Z,22.00
2022-07-28T22:23:46.191Z,22.00
2022-07-28T22:26:32.042Z,21.90
2022-07-28T22:29:18.282Z,21.80
2022-07-28T22:32:04.995Z,21.90
2022-07-28T22:34:51.087Z,21.80
2022-07-28T22:37:38.075Z,21.80
2022-07-28T22:40:24.076Z,21.80
2022-07-28T22:43:10.077Z,21.60
2022-07-28T22:45:55.941Z,21.50
2022-07-28T22:48:42.035Z,21.40
2022-07-28T22:51:28.000Z,21.30
2022-07-28T22:54:16.730Z,21.20
2022-07-28T22:57:03.457Z,21.10
2022-07-28T22:59:51.158Z,21.00
2022-07-28T23:02:37.876Z,20.80
2022-07-28T23:05:24.481Z,20.60
2022-07-28T23:08:10.693Z,20.50
2022-07-28T23:10:56.922Z,20.30
2022-07-28T23:13:42.988Z,20.20
2022-07-28T23:16:28.994Z,20.20
2022-07-28T23:19:15.431Z,20.10
2022-07-28T23:22:01.359Z,20.10
2022-07-28T23:24:47.248Z,20.10
2022-07-28T23:27:33.782Z,20.00
2022-07-28T23:30:19.678Z,20.00
2022-07-28T23:33:06.474Z,20.00
2022-07-28T23:35:52.820Z,20.00
2022-07-28T23:38:38.697Z,19.90
2022-07-28T23:41:25.823Z,19.90
2022-07-28T23:44:12.160Z,19.90
2022-07-28T23:46:58.568Z,19.80
2022-07-28T23:49:44.864Z,19.80
2022-07-28T23:52:31.077Z,19.80
2022-07-28T23:55:17.173Z,19.80
2022-07-28T23:58:04.326Z,19.70
